sensor_id;sensor_type;location;lat;lon;timestamp;P1;durP1;ratioP1;P2;durP2;ratioP2
735;SDS011;352;48.626;9.238;2023-08-24T00:00:46;201.13;;;188.53;;
735;SDS011;352;48.626;9.238;2023-08-24T00:03:13;209.40;;;195.10;;
735;SDS011;352;48.626;9.238;2023-08-24T00:05:40;230.27;;;213.90;;
735;SDS011;352;48.626;9.238;2023-08-24T00:08:07;242.30;;;224.60;;
735;SDS011;352;48.626;9.238;2023-08-24T00:10:35;270.23;;;247.17;;
735;SDS011;352;48.626;9.238;2023-08-24T00:13:03;266.43;;;243.83;;
735;SDS011;352;48.626;9.238;2023-08-24T00:15:30;113.97;;;103.23;;
735;SDS011;352;48.626;9.238;2023-08-24T00:17:57;335.93;;;150.30;;
735;SDS011;352;48.626;9.238;2023-08-24T00:20:24;343.20;;;206.37;;
735;SDS011;352;48.626;9.238;2023-08-24T00:22:52;347.03;;;215.37;;
735;SDS011;352;48.626;9.238;2023-08-24T00:25:19;303.53;;;226.93;;
735;SDS011;352;48.626;9.238;2023-08-24T00:27:52;275.57;;;210.20;;
735;SDS011;352;48.626;9.238;2023-08-24T00:30:20;330.93;;;204.30;;
735;SDS011;352;48.626;9.238;2023-08-24T00:32:47;91.70;;;63.10;;
735;SDS011;352;48.626;9.238;2023-08-24T00:35:15;13.43;;;10.37;;
735;SDS011;352;48.626;9.238;2023-08-24T00:37:42;13.83;;;11.47;;
735;SDS011;352;48.626;9.238;2023-08-24T00:40:09;12.77;;;10.57;;
735;SDS011;352;48.626;9.238;2023-08-24T00:42:37;13.97;;;12.53;;
735;SDS011;352;48.626;9.238;2023-08-24T00:45:05;12.03;;;10.43;;
735;SDS011;352;48.626;9.238;2023-08-24T00:47:34;12.83;;;10.47;;
735;SDS011;352;48.626;9.238;2023-08-24T00:50:01;10.53;;;9.43;;
735;SDS011;352;48.626;9.238;2023-08-24T00:52:28;11.23;;;9.43;;
735;SDS011;352;48.626;9.238;2023-08-24T00:54:57;13.30;;;10.67;;
735;SDS011;352;48.626;9.238;2023-08-24T00:57:25;16.63;;;10.90;;
735;SDS011;352;48.626;9.238;2023-08-24T00:59:52;14.27;;;10.10;;
735;SDS011;352;48.626;9.238;2023-08-24T01:02:19;13.70;;;10.90;;
735;SDS011;352;48.626;9.238;2023-08-24T01:04:47;13.80;;;9.80;;
735;SDS011;352;48.626;9.238;2023-08-24T01:07:14;19.17;;;12.30;;
735;SDS011;352;48.626;9.238;2023-08-24T01:09:42;13.47;;;10.43;;
735;SDS011;352;48.626;9.238;2023-08-24T01:12:12;13.77;;;10.13;;
735;SDS011;352;48.626;9.238;2023-08-24T01:14:47;12.70;;;9.00;;
735;SDS011;352;48.626;9.238;2023-08-24T01:17:22;17.60;;;11.90;;
735;SDS011;352;48.626;9.238;2023-08-24T01:19:53;13.10;;;10.07;;
735;SDS011;352;48.626;9.238;2023-08-24T01:22:23;11.27;;;9.40;;
735;SDS011;352;48.626;9.238;2023-08-24T01:25:00;14.77;;;12.17;;
735;SDS011;352;48.626;9.238;2023-08-24T01:27:34;9.73;;;8.73;;
735;SDS011;352;48.626;9.238;2023-08-24T01:30:02;11.17;;;10.00;;
735;SDS011;352;48.626;9.238;2023-08-24T01:32:29;10.80;;;9.27;;
735;SDS011;352;48.626;9.238;2023-08-24T01:34:57;13.90;;;9.43;;
735;SDS011;352;48.626;9.238;2023-08-24T01:37:25;13.07;;;10.47;;
735;SDS011;352;48.626;9.238;2023-08-24T01:39:54;11.10;;;10.10;;
735;SDS011;352;48.626;9.238;2023-08-24T01:42:29;10.93;;;9.83;;
735;SDS011;352;48.626;9.238;2023-08-24T01:44:59;11.90;;;9.83;;
735;SDS011;352;48.626;9.238;2023-08-24T01:47:32;11.23;;;9.83;;
735;SDS011;352;48.626;9.238;2023-08-24T01:50:01;13.67;;;10.17;;
735;SDS011;352;48.626;9.238;2023-08-24T01:52:29;12.47;;;10.83;;
735;SDS011;352;48.626;9.238;2023-08-24T01:54:56;10.57;;;9.47;;
735;SDS011;352;48.626;9.238;2023-08-24T01:57:23;25.53;;;13.10;;
735;SDS011;352;48.626;9.238;2023-08-24T01:59:50;10.47;;;8.90;;
735;SDS011;352;48.626;9.238;2023-08-24T02:02:18;13.90;;;10.23;;
735;SDS011;352;48.626;9.238;2023-08-24T02:04:46;12.97;;;9.90;;
735;SDS011;352;48.626;9.238;2023-08-24T02:07:13;21.60;;;13.50;;
735;SDS011;352;48.626;9.238;2023-08-24T02:09:40;14.60;;;9.40;;
735;SDS011;352;48.626;9.238;2023-08-24T02:12:07;11.03;;;9.90;;
735;SDS011;352;48.626;9.238;2023-08-24T02:14:34;10.80;;;9.50;;
735;SDS011;352;48.626;9.238;2023-08-24T02:17:01;12.10;;;10.70;;
735;SDS011;352;48.626;9.238;2023-08-24T02:19:30;10.63;;;9.53;;
735;SDS011;352;48.626;9.238;2023-08-24T02:21:57;13.17;;;11.17;;
735;SDS011;352;48.626;9.238;2023-08-24T02:24:24;19.20;;;10.97;;
735;SDS011;352;48.626;9.238;2023-08-24T02:26:51;11.83;;;10.60;;
735;SDS011;352;48.626;9.238;2023-08-24T02:29:18;14.80;;;10.70;;
735;SDS011;352;48.626;9.238;2023-08-24T02:31:45;14.70;;;12.37;;
735;SDS011;352;48.626;9.238;2023-08-24T02:34:12;15.10;;;13.50;;
735;SDS011;352;48.626;9.238;2023-08-24T02:36:41;13.57;;;11.07;;
735;SDS011;352;48.626;9.238;2023-08-24T02:39:07;11.73;;;10.53;;
735;SDS011;352;48.626;9.238;2023-08-24T02:41:35;13.70;;;11.10;;
735;SDS011;352;48.626;9.238;2023-08-24T02:44:02;13.37;;;11.90;;
735;SDS011;352;48.626;9.238;2023-08-24T02:46:29;19.50;;;13.73;;
735;SDS011;352;48.626;9.238;2023-08-24T02:48:56;14.40;;;12.17;;
735;SDS011;352;48.626;9.238;2023-08-24T02:51:23;12.47;;;10.53;;
735;SDS011;352;48.626;9.238;2023-08-24T02:53:52;11.13;;;9.93;;
735;SDS011;352;48.626;9.238;2023-08-24T02:56:19;11.73;;;10.50;;
735;SDS011;352;48.626;9.238;2023-08-24T02:58:46;11.90;;;10.23;;
735;SDS011;352;48.626;9.238;2023-08-24T03:01:13;12.27;;;10.23;;
735;SDS011;352;48.626;9.238;2023-08-24T03:03:40;12.53;;;9.97;;
735;SDS011;352;48.626;9.238;2023-08-24T03:06:07;14.27;;;11.50;;
735;SDS011;352;48.626;9.238;2023-08-24T03:08:35;11.20;;;10.10;;
735;SDS011;352;48.626;9.238;2023-08-24T03:11:03;15.07;;;11.37;;
735;SDS011;352;48.626;9.238;2023-08-24T03:13:30;16.40;;;11.13;;
735;SDS011;352;48.626;9.238;2023-08-24T03:15:57;14.50;;;10.40;;
735;SDS011;352;48.626;9.238;2023-08-24T03:18:24;11.20;;;10.10;;
735;SDS011;352;48.626;9.238;2023-08-24T03:20:51;11.73;;;10.53;;
735;SDS011;352;48.626;9.238;2023-08-24T03:23:18;13.33;;;10.80;;
735;SDS011;352;48.626;9.238;2023-08-24T03:25:45;13.20;;;10.10;;
735;SDS011;352;48.626;9.238;2023-08-24T03:28:14;14.13;;;10.53;;
735;SDS011;352;48.626;9.238;2023-08-24T03:30:45;12.40;;;10.70;;
735;SDS011;352;48.626;9.238;2023-08-24T03:33:13;12.07;;;10.80;;
735;SDS011;352;48.626;9.238;2023-08-24T03:35:40;12.03;;;10.83;;
735;SDS011;352;48.626;9.238;2023-08-24T03:38:07;12.23;;;10.30;;
735;SDS011;352;48.626;9.238;2023-08-24T03:40:34;14.80;;;11.57;;
735;SDS011;352;48.626;9.238;2023-08-24T03:43:01;14.60;;;12.17;;
735;SDS011;352;48.626;9.238;2023-08-24T03:45:30;11.77;;;10.60;;
735;SDS011;352;48.626;9.238;2023-08-24T03:47:57;15.63;;;12.37;;
735;SDS011;352;48.626;9.238;2023-08-24T03:50:24;24.80;;;13.70;;
735;SDS011;352;48.626;9.238;2023-08-24T03:52:51;12.80;;;11.43;;
735;SDS011;352;48.626;9.238;2023-08-24T03:55:19;14.80;;;12.57;;
735;SDS011;352;48.626;9.238;2023-08-24T03:57:46;12.37;;;11.07;;
735;SDS011;352;48.626;9.238;2023-08-24T04:00:13;12.40;;;11.10;;
735;SDS011;352;48.626;9.238;2023-08-24T04:02:43;15.93;;;11.40;;
735;SDS011;352;48.626;9.238;2023-08-24T04:05:10;15.87;;;11.07;;
735;SDS011;352;48.626;9.238;2023-08-24T04:07:37;13.97;;;11.20;;
735;SDS011;352;48.626;9.238;2023-08-24T04:10:06;14.27;;;11.37;;
735;SDS011;352;48.626;9.238;2023-08-24T04:12:33;14.17;;;10.30;;
735;SDS011;352;48.626;9.238;2023-08-24T04:15:01;13.23;;;10.13;;
735;SDS011;352;48.626;9.238;2023-08-24T04:17:28;12.63;;;10.90;;
735;SDS011;352;48.626;9.238;2023-08-24T04:19:56;16.60;;;12.40;;
735;SDS011;352;48.626;9.238;2023-08-24T04:22:23;13.07;;;11.60;;
735;SDS011;352;48.626;9.238;2023-08-24T04:24:51;14.03;;;10.73;;
735;SDS011;352;48.626;9.238;2023-08-24T04:27:18;19.10;;;14.03;;
735;SDS011;352;48.626;9.238;2023-08-24T04:29:46;18.23;;;11.73;;
735;SDS011;352;48.626;9.238;2023-08-24T04:32:13;18.23;;;12.23;;
735;SDS011;352;48.626;9.238;2023-08-24T04:34:41;12.63;;;10.20;;
735;SDS011;352;48.626;9.238;2023-08-24T04:37:09;20.13;;;12.93;;
735;SDS011;352;48.626;9.238;2023-08-24T04:39:36;10.70;;;9.67;;
735;SDS011;352;48.626;9.238;2023-08-24T04:42:03;12.43;;;10.90;;
735;SDS011;352;48.626;9.238;2023-08-24T04:44:31;13.10;;;11.60;;
735;SDS011;352;48.626;9.238;2023-08-24T04:46:58;22.73;;;12.43;;
735;SDS011;352;48.626;9.238;2023-08-24T04:49:25;13.57;;;11.40;;
735;SDS011;352;48.626;9.238;2023-08-24T04:51:53;12.67;;;10.10;;
735;SDS011;352;48.626;9.238;2023-08-24T04:54:21;13.13;;;10.73;;
735;SDS011;352;48.626;9.238;2023-08-24T04:56:48;16.83;;;12.57;;
735;SDS011;352;48.626;9.238;2023-08-24T04:59:15;14.27;;;10.23;;
735;SDS011;352;48.626;9.238;2023-08-24T05:01:43;12.33;;;11.00;;
735;SDS011;352;48.626;9.238;2023-08-24T05:04:10;15.03;;;11.40;;
735;SDS011;352;48.626;9.238;2023-08-24T05:06:37;14.60;;;10.83;;
735;SDS011;352;48.626;9.238;2023-08-24T05:09:04;13.00;;;10.17;;
735;SDS011;352;48.626;9.238;2023-08-24T05:11:32;15.40;;;11.03;;
735;SDS011;352;48.626;9.238;2023-08-24T05:13:59;15.23;;;11.17;;
735;SDS011;352;48.626;9.238;2023-08-24T05:16:26;13.77;;;10.90;;
735;SDS011;352;48.626;9.238;2023-08-24T05:18:54;12.60;;;10.73;;
735;SDS011;352;48.626;9.238;2023-08-24T05:21:21;11.83;;;10.53;;
735;SDS011;352;48.626;9.238;2023-08-24T05:23:48;12.50;;;10.60;;
735;SDS011;352;48.626;9.238;2023-08-24T05:26:15;11.57;;;9.97;;
735;SDS011;352;48.626;9.238;2023-08-24T05:28:48;13.57;;;10.43;;
735;SDS011;352;48.626;9.238;2023-08-24T05:31:15;13.20;;;11.77;;
735;SDS011;352;48.626;9.238;2023-08-24T05:33:42;15.93;;;14.30;;
735;SDS011;352;48.626;9.238;2023-08-24T05:36:09;12.50;;;9.63;;
735;SDS011;352;48.626;9.238;2023-08-24T05:38:37;13.50;;;10.57;;
735;SDS011;352;48.626;9.238;2023-08-24T05:41:09;22.00;;;20.00;;
735;SDS011;352;48.626;9.238;2023-08-24T05:43:37;14.27;;;10.10;;
735;SDS011;352;48.626;9.238;2023-08-24T05:46:05;15.53;;;12.60;;
735;SDS011;352;48.626;9.238;2023-08-24T05:48:32;26.90;;;18.03;;
735;SDS011;352;48.626;9.238;2023-08-24T05:50:59;12.40;;;9.73;;
735;SDS011;352;48.626;9.238;2023-08-24T05:53:26;12.40;;;10.67;;
735;SDS011;352;48.626;9.238;2023-08-24T05:55:56;11.40;;;10.17;;
735;SDS011;352;48.626;9.238;2023-08-24T05:58:24;12.40;;;10.00;;
735;SDS011;352;48.626;9.238;2023-08-24T06:00:55;12.17;;;10.80;;
735;SDS011;352;48.626;9.238;2023-08-24T06:03:25;12.53;;;11.27;;
735;SDS011;352;48.626;9.238;2023-08-24T06:05:52;15.30;;;11.77;;
735;SDS011;352;48.626;9.238;2023-08-24T06:08:19;10.43;;;9.43;;
735;SDS011;352;48.626;9.238;2023-08-24T06:10:46;12.57;;;11.27;;
735;SDS011;352;48.626;9.238;2023-08-24T06:13:13;14.97;;;13.03;;
735;SDS011;352;48.626;9.238;2023-08-24T06:15:41;16.10;;;10.73;;
735;SDS011;352;48.626;9.238;2023-08-24T06:18:08;12.43;;;11.13;;
735;SDS011;352;48.626;9.238;2023-08-24T06:20:36;12.83;;;11.43;;
735;SDS011;352;48.626;9.238;2023-08-24T06:23:03;13.57;;;11.00;;
735;SDS011;352;48.626;9.238;2023-08-24T06:25:30;14.10;;;10.27;;
735;SDS011;352;48.626;9.238;2023-08-24T06:27:58;19.10;;;11.70;;
735;SDS011;352;48.626;9.238;2023-08-24T06:30:25;14.50;;;11.27;;
735;SDS011;352;48.626;9.238;2023-08-24T06:32:52;14.37;;;11.07;;
735;SDS011;352;48.626;9.238;2023-08-24T06:35:19;13.93;;;11.27;;
735;SDS011;352;48.626;9.238;2023-08-24T06:37:47;15.53;;;11.10;;
735;SDS011;352;48.626;9.238;2023-08-24T06:40:14;13.70;;;11.03;;
735;SDS011;352;48.626;9.238;2023-08-24T06:42:42;12.10;;;10.40;;
735;SDS011;352;48.626;9.238;2023-08-24T06:45:10;14.37;;;10.37;;
735;SDS011;352;48.626;9.238;2023-08-24T06:47:39;13.50;;;10.20;;
735;SDS011;352;48.626;9.238;2023-08-24T06:50:06;20.27;;;12.80;;
735;SDS011;352;48.626;9.238;2023-08-24T06:52:33;12.40;;;10.60;;
735;SDS011;352;48.626;9.238;2023-08-24T06:55:02;14.40;;;10.93;;
735;SDS011;352;48.626;9.238;2023-08-24T06:57:30;12.90;;;11.13;;
735;SDS011;352;48.626;9.238;2023-08-24T06:59:57;12.73;;;10.37;;
735;SDS011;352;48.626;9.238;2023-08-24T07:02:25;12.10;;;9.20;;
735;SDS011;352;48.626;9.238;2023-08-24T07:04:52;17.83;;;11.80;;
735;SDS011;352;48.626;9.238;2023-08-24T07:07:22;21.83;;;13.97;;
735;SDS011;352;48.626;9.238;2023-08-24T07:09:49;15.60;;;11.37;;
735;SDS011;352;48.626;9.238;2023-08-24T07:12:17;15.63;;;11.63;;
735;SDS011;352;48.626;9.238;2023-08-24T07:14:44;14.73;;;12.17;;
735;SDS011;352;48.626;9.238;2023-08-24T07:17:11;31.57;;;21.13;;
735;SDS011;352;48.626;9.238;2023-08-24T07:19:38;15.00;;;12.40;;
735;SDS011;352;48.626;9.238;2023-08-24T07:22:05;12.93;;;11.50;;
735;SDS011;352;48.626;9.238;2023-08-24T07:24:33;15.07;;;11.00;;
735;SDS011;352;48.626;9.238;2023-08-24T07:27:01;15.43;;;12.87;;
735;SDS011;352;48.626;9.238;2023-08-24T07:29:30;12.67;;;11.40;;
735;SDS011;352;48.626;9.238;2023-08-24T07:31:57;15.80;;;12.47;;
735;SDS011;352;48.626;9.238;2023-08-24T07:34:24;107.27;;;101.87;;
735;SDS011;352;48.626;9.238;2023-08-24T07:36:51;37.80;;;35.00;;
735;SDS011;352;48.626;9.238;2023-08-24T07:39:18;54.20;;;50.23;;
735;SDS011;352;48.626;9.238;2023-08-24T07:41:45;25.37;;;23.07;;
735;SDS011;352;48.626;9.238;2023-08-24T07:44:12;78.17;;;74.43;;
735;SDS011;352;48.626;9.238;2023-08-24T07:46:41;11.87;;;9.90;;
735;SDS011;352;48.626;9.238;2023-08-24T07:49:08;10.37;;;9.27;;
735;SDS011;352;48.626;9.238;2023-08-24T07:51:35;11.63;;;9.70;;
735;SDS011;352;48.626;9.238;2023-08-24T07:54:02;9.17;;;8.37;;
735;SDS011;352;48.626;9.238;2023-08-24T07:56:31;11.73;;;9.03;;
735;SDS011;352;48.626;9.238;2023-08-24T07:58:58;11.63;;;9.20;;
735;SDS011;352;48.626;9.238;2023-08-24T08:01:26;15.20;;;9.47;;
735;SDS011;352;48.626;9.238;2023-08-24T08:03:54;12.50;;;10.90;;
735;SDS011;352;48.626;9.238;2023-08-24T08:06:21;14.00;;;10.97;;
735;SDS011;352;48.626;9.238;2023-08-24T08:08:49;21.30;;;18.97;;
735;SDS011;352;48.626;9.238;2023-08-24T08:11:16;18.67;;;15.67;;
735;SDS011;352;48.626;9.238;2023-08-24T08:13:43;12.00;;;9.90;;
735;SDS011;352;48.626;9.238;2023-08-24T08:16:10;23.53;;;20.83;;
735;SDS011;352;48.626;9.238;2023-08-24T08:18:38;13.83;;;11.30;;
735;SDS011;352;48.626;9.238;2023-08-24T08:21:09;29.97;;;23.67;;
735;SDS011;352;48.626;9.238;2023-08-24T08:23:37;15.40;;;10.20;;
735;SDS011;352;48.626;9.238;2023-08-24T08:26:04;23.57;;;14.47;;
735;SDS011;352;48.626;9.238;2023-08-24T08:28:31;13.83;;;11.67;;
735;SDS011;352;48.626;9.238;2023-08-24T08:30:59;11.63;;;10.50;;
735;SDS011;352;48.626;9.238;2023-08-24T08:33:27;19.17;;;11.03;;
735;SDS011;352;48.626;9.238;2023-08-24T08:35:54;14.23;;;10.67;;
735;SDS011;352;48.626;9.238;2023-08-24T08:38:22;11.40;;;9.13;;
735;SDS011;352;48.626;9.238;2023-08-24T08:40:51;13.10;;;9.07;;
735;SDS011;352;48.626;9.238;2023-08-24T08:43:18;15.50;;;11.67;;
735;SDS011;352;48.626;9.238;2023-08-24T08:45:47;13.40;;;11.57;;
735;SDS011;352;48.626;9.238;2023-08-24T08:48:15;15.97;;;12.27;;
735;SDS011;352;48.626;9.238;2023-08-24T08:50:42;17.63;;;14.83;;
735;SDS011;352;48.626;9.238;2023-08-24T08:53:09;30.20;;;28.50;;
735;SDS011;352;48.626;9.238;2023-08-24T08:55:38;29.73;;;27.63;;
735;SDS011;352;48.626;9.238;2023-08-24T08:58:05;38.17;;;35.33;;
735;SDS011;352;48.626;9.238;2023-08-24T09:00:32;29.33;;;26.80;;
735;SDS011;352;48.626;9.238;2023-08-24T09:02:59;29.80;;;27.83;;
735;SDS011;352;48.626;9.238;2023-08-24T09:05:27;41.70;;;38.80;;
735;SDS011;352;48.626;9.238;2023-08-24T09:07:55;27.50;;;25.27;;
735;SDS011;352;48.626;9.238;2023-08-24T09:10:24;62.20;;;58.77;;
735;SDS011;352;48.626;9.238;2023-08-24T09:12:53;82.27;;;79.13;;
735;SDS011;352;48.626;9.238;2023-08-24T09:15:26;53.43;;;50.83;;
735;SDS011;352;48.626;9.238;2023-08-24T09:17:54;63.13;;;60.37;;
735;SDS011;352;48.626;9.238;2023-08-24T09:20:21;108.27;;;103.83;;
735;SDS011;352;48.626;9.238;2023-08-24T09:22:48;93.03;;;89.40;;
735;SDS011;352;48.626;9.238;2023-08-24T09:25:19;72.97;;;70.07;;
735;SDS011;352;48.626;9.238;2023-08-24T09:27:46;80.73;;;77.43;;
735;SDS011;352;48.626;9.238;2023-08-24T09:30:28;25.53;;;20.77;;
735;SDS011;352;48.626;9.238;2023-08-24T09:32:55;9.77;;;8.87;;
735;SDS011;352;48.626;9.238;2023-08-24T09:35:22;10.63;;;8.93;;
735;SDS011;352;48.626;9.238;2023-08-24T09:37:50;11.83;;;10.37;;
735;SDS011;352;48.626;9.238;2023-08-24T09:40:23;10.90;;;9.90;;
735;SDS011;352;48.626;9.238;2023-08-24T09:42:50;10.97;;;9.40;;
735;SDS011;352;48.626;9.238;2023-08-24T09:45:19;12.87;;;10.10;;
735;SDS011;352;48.626;9.238;2023-08-24T09:47:46;13.40;;;10.67;;
735;SDS011;352;48.626;9.238;2023-08-24T09:50:16;13.73;;;12.53;;
735;SDS011;352;48.626;9.238;2023-08-24T09:52:43;13.83;;;12.77;;
735;SDS011;352;48.626;9.238;2023-08-24T09:55:12;20.30;;;18.90;;
735;SDS011;352;48.626;9.238;2023-08-24T09:57:44;25.60;;;22.50;;
735;SDS011;352;48.626;9.238;2023-08-24T10:00:13;29.37;;;27.07;;
735;SDS011;352;48.626;9.238;2023-08-24T10:02:45;25.90;;;24.50;;
735;SDS011;352;48.626;9.238;2023-08-24T10:05:16;26.30;;;24.43;;
735;SDS011;352;48.626;9.238;2023-08-24T10:07:46;34.17;;;32.67;;
735;SDS011;352;48.626;9.238;2023-08-24T10:10:17;37.10;;;35.13;;
735;SDS011;352;48.626;9.238;2023-08-24T10:12:49;35.87;;;33.27;;
735;SDS011;352;48.626;9.238;2023-08-24T10:15:17;39.23;;;37.07;;
735;SDS011;352;48.626;9.238;2023-08-24T10:17:48;33.43;;;30.97;;
735;SDS011;352;48.626;9.238;2023-08-24T10:20:17;39.97;;;37.67;;
735;SDS011;352;48.626;9.238;2023-08-24T10:22:46;68.37;;;65.43;;
735;SDS011;352;48.626;9.238;2023-08-24T10:25:13;72.47;;;69.23;;
735;SDS011;352;48.626;9.238;2023-08-24T10:27:43;59.47;;;56.87;;
735;SDS011;352;48.626;9.238;2023-08-24T10:30:13;59.33;;;56.90;;
735;SDS011;352;48.626;9.238;2023-08-24T10:32:40;24.37;;;22.80;;
735;SDS011;352;48.626;9.238;2023-08-24T10:35:10;34.30;;;32.50;;
735;SDS011;352;48.626;9.238;2023-08-24T10:37:36;46.30;;;44.10;;
735;SDS011;352;48.626;9.238;2023-08-24T10:40:04;22.73;;;21.30;;
735;SDS011;352;48.626;9.238;2023-08-24T10:42:42;35.43;;;33.40;;
735;SDS011;352;48.626;9.238;2023-08-24T10:45:10;30.30;;;28.57;;
735;SDS011;352;48.626;9.238;2023-08-24T10:47:43;43.57;;;41.33;;
735;SDS011;352;48.626;9.238;2023-08-24T10:50:12;32.77;;;30.97;;
735;SDS011;352;48.626;9.238;2023-08-24T10:52:40;49.27;;;46.97;;
735;SDS011;352;48.626;9.238;2023-08-24T10:55:21;44.30;;;42.40;;
735;SDS011;352;48.626;9.238;2023-08-24T10:57:55;68.13;;;65.30;;
735;SDS011;352;48.626;9.238;2023-08-24T11:00:23;50.30;;;47.23;;
735;SDS011;352;48.626;9.238;2023-08-24T11:02:52;32.63;;;30.50;;
735;SDS011;352;48.626;9.238;2023-08-24T11:05:21;26.77;;;24.57;;
735;SDS011;352;48.626;9.238;2023-08-24T11:07:53;26.60;;;24.90;;
735;SDS011;352;48.626;9.238;2023-08-24T11:10:25;42.83;;;39.70;;
735;SDS011;352;48.626;9.238;2023-08-24T11:13:10;42.80;;;40.87;;
735;SDS011;352;48.626;9.238;2023-08-24T11:15:38;43.37;;;41.33;;
735;SDS011;352;48.626;9.238;2023-08-24T11:18:19;47.30;;;45.00;;
735;SDS011;352;48.626;9.238;2023-08-24T11:20:50;31.93;;;29.07;;
735;SDS011;352;48.626;9.238;2023-08-24T11:23:18;31.97;;;29.60;;
735;SDS011;352;48.626;9.238;2023-08-24T11:25:46;37.13;;;33.87;;
735;SDS011;352;48.626;9.238;2023-08-24T11:28:16;32.73;;;31.17;;
735;SDS011;352;48.626;9.238;2023-08-24T11:30:44;108.97;;;104.97;;
735;SDS011;352;48.626;9.238;2023-08-24T11:33:12;117.33;;;113.33;;
735;SDS011;352;48.626;9.238;2023-08-24T11:35:40;151.27;;;145.83;;
735;SDS011;352;48.626;9.238;2023-08-24T11:38:09;42.97;;;40.83;;
735;SDS011;352;48.626;9.238;2023-08-24T11:40:37;46.63;;;44.40;;
735;SDS011;352;48.626;9.238;2023-08-24T11:43:04;29.37;;;27.27;;
735;SDS011;352;48.626;9.238;2023-08-24T11:45:31;37.00;;;34.97;;
735;SDS011;352;48.626;9.238;2023-08-24T11:47:58;42.97;;;40.50;;
735;SDS011;352;48.626;9.238;2023-08-24T11:50:26;32.43;;;30.47;;
735;SDS011;352;48.626;9.238;2023-08-24T11:52:53;48.97;;;46.20;;
735;SDS011;352;48.626;9.238;2023-08-24T11:55:22;36.10;;;34.07;;
735;SDS011;352;48.626;9.238;2023-08-24T11:57:49;26.17;;;24.10;;
735;SDS011;352;48.626;9.238;2023-08-24T12:00:17;42.93;;;39.97;;
735;SDS011;352;48.626;9.238;2023-08-24T12:02:45;24.17;;;21.70;;
735;SDS011;352;48.626;9.238;2023-08-24T12:05:22;28.40;;;26.60;;
735;SDS011;352;48.626;9.238;2023-08-24T12:07:54;31.23;;;28.97;;
735;SDS011;352;48.626;9.238;2023-08-24T12:10:21;33.63;;;31.43;;
735;SDS011;352;48.626;9.238;2023-08-24T12:12:49;25.83;;;23.83;;
735;SDS011;352;48.626;9.238;2023-08-24T12:15:27;16.67;;;15.30;;
735;SDS011;352;48.626;9.238;2023-08-24T12:17:54;28.63;;;26.77;;
735;SDS011;352;48.626;9.238;2023-08-24T12:20:22;39.47;;;36.57;;
735;SDS011;352;48.626;9.238;2023-08-24T12:22:49;23.80;;;22.37;;
735;SDS011;352;48.626;9.238;2023-08-24T12:25:17;16.40;;;14.73;;
735;SDS011;352;48.626;9.238;2023-08-24T12:27:44;32.20;;;30.40;;
735;SDS011;352;48.626;9.238;2023-08-24T12:30:13;29.07;;;25.57;;
735;SDS011;352;48.626;9.238;2023-08-24T12:32:43;13.10;;;11.90;;
735;SDS011;352;48.626;9.238;2023-08-24T12:35:11;12.50;;;10.80;;
735;SDS011;352;48.626;9.238;2023-08-24T12:37:38;14.30;;;10.10;;
735;SDS011;352;48.626;9.238;2023-08-24T12:40:06;16.00;;;11.07;;
735;SDS011;352;48.626;9.238;2023-08-24T12:42:33;11.00;;;9.80;;
735;SDS011;352;48.626;9.238;2023-08-24T12:45:00;12.47;;;9.90;;
735;SDS011;352;48.626;9.238;2023-08-24T12:47:29;12.23;;;10.40;;
735;SDS011;352;48.626;9.238;2023-08-24T12:49:56;12.20;;;9.73;;
735;SDS011;352;48.626;9.238;2023-08-24T12:52:23;14.17;;;11.03;;
735;SDS011;352;48.626;9.238;2023-08-24T12:54:50;15.77;;;10.40;;
735;SDS011;352;48.626;9.238;2023-08-24T12:57:17;18.90;;;12.57;;
735;SDS011;352;48.626;9.238;2023-08-24T12:59:44;13.77;;;9.70;;
735;SDS011;352;48.626;9.238;2023-08-24T13:02:12;12.83;;;10.70;;
735;SDS011;352;48.626;9.238;2023-08-24T13:04:41;16.20;;;11.07;;
735;SDS011;352;48.626;9.238;2023-08-24T13:07:08;17.70;;;12.43;;
735;SDS011;352;48.626;9.238;2023-08-24T13:09:35;13.27;;;9.20;;
735;SDS011;352;48.626;9.238;2023-08-24T13:12:02;11.00;;;9.30;;
735;SDS011;352;48.626;9.238;2023-08-24T13:14:29;12.50;;;9.90;;
735;SDS011;352;48.626;9.238;2023-08-24T13:16:56;13.60;;;9.40;;
735;SDS011;352;48.626;9.238;2023-08-24T13:19:24;13.20;;;9.83;;
735;SDS011;352;48.626;9.238;2023-08-24T13:21:52;12.93;;;9.60;;
735;SDS011;352;48.626;9.238;2023-08-24T13:24:19;12.60;;;10.07;;
735;SDS011;352;48.626;9.238;2023-08-24T13:26:46;10.47;;;9.00;;
735;SDS011;352;48.626;9.238;2023-08-24T13:29:13;13.17;;;9.70;;
735;SDS011;352;48.626;9.238;2023-08-24T13:31:40;16.73;;;10.20;;
735;SDS011;352;48.626;9.238;2023-08-24T13:34:07;23.00;;;12.60;;
735;SDS011;352;48.626;9.238;2023-08-24T13:36:34;15.50;;;9.93;;
735;SDS011;352;48.626;9.238;2023-08-24T13:39:03;14.13;;;9.27;;
735;SDS011;352;48.626;9.238;2023-08-24T13:41:30;15.47;;;10.27;;
735;SDS011;352;48.626;9.238;2023-08-24T13:43:57;12.43;;;9.37;;
735;SDS011;352;48.626;9.238;2023-08-24T13:46:24;12.93;;;8.93;;
735;SDS011;352;48.626;9.238;2023-08-24T13:48:51;14.20;;;9.37;;
735;SDS011;352;48.626;9.238;2023-08-24T13:51:18;14.17;;;10.10;;
735;SDS011;352;48.626;9.238;2023-08-24T13:53:45;16.17;;;9.87;;
735;SDS011;352;48.626;9.238;2023-08-24T13:56:15;17.43;;;10.20;;
735;SDS011;352;48.626;9.238;2023-08-24T13:58:41;14.10;;;9.30;;
735;SDS011;352;48.626;9.238;2023-08-24T14:01:09;11.33;;;9.07;;
735;SDS011;352;48.626;9.238;2023-08-24T14:03:37;12.13;;;9.03;;
735;SDS011;352;48.626;9.238;2023-08-24T14:06:05;12.17;;;10.17;;
735;SDS011;352;48.626;9.238;2023-08-24T14:08:32;16.23;;;9.73;;
735;SDS011;352;48.626;9.238;2023-08-24T14:10:59;13.43;;;10.40;;
735;SDS011;352;48.626;9.238;2023-08-24T14:13:27;10.23;;;7.60;;
735;SDS011;352;48.626;9.238;2023-08-24T14:15:56;16.20;;;9.00;;
735;SDS011;352;48.626;9.238;2023-08-24T14:18:23;15.50;;;9.70;;
735;SDS011;352;48.626;9.238;2023-08-24T14:20:50;14.87;;;9.33;;
735;SDS011;352;48.626;9.238;2023-08-24T14:23:17;15.67;;;8.97;;
735;SDS011;352;48.626;9.238;2023-08-24T14:25:45;11.37;;;8.80;;
735;SDS011;352;48.626;9.238;2023-08-24T14:28:18;13.90;;;8.30;;
735;SDS011;352;48.626;9.238;2023-08-24T14:30:49;12.63;;;9.40;;
735;SDS011;352;48.626;9.238;2023-08-24T14:33:17;11.60;;;8.93;;
735;SDS011;352;48.626;9.238;2023-08-24T14:35:49;11.00;;;8.33;;
735;SDS011;352;48.626;9.238;2023-08-24T14:38:17;10.93;;;8.33;;
735;SDS011;352;48.626;9.238;2023-08-24T14:40:44;16.50;;;9.17;;
735;SDS011;352;48.626;9.238;2023-08-24T14:43:11;11.80;;;8.97;;
735;SDS011;352;48.626;9.238;2023-08-24T14:45:38;16.13;;;10.63;;
735;SDS011;352;48.626;9.238;2023-08-24T14:48:07;17.37;;;11.00;;
735;SDS011;352;48.626;9.238;2023-08-24T14:50:37;11.90;;;9.20;;
735;SDS011;352;48.626;9.238;2023-08-24T14:53:04;14.43;;;9.03;;
735;SDS011;352;48.626;9.238;2023-08-24T14:55:31;13.70;;;8.33;;
735;SDS011;352;48.626;9.238;2023-08-24T14:57:58;12.40;;;9.20;;
735;SDS011;352;48.626;9.238;2023-08-24T15:00:26;21.40;;;15.33;;
735;SDS011;352;48.626;9.238;2023-08-24T15:02:53;15.10;;;9.10;;
735;SDS011;352;48.626;9.238;2023-08-24T15:05:22;12.50;;;8.40;;
735;SDS011;352;48.626;9.238;2023-08-24T15:07:49;14.80;;;8.20;;
735;SDS011;352;48.626;9.238;2023-08-24T15:10:16;12.67;;;9.47;;
735;SDS011;352;48.626;9.238;2023-08-24T15:12:44;11.93;;;8.40;;
735;SDS011;352;48.626;9.238;2023-08-24T15:15:11;10.43;;;8.60;;
735;SDS011;352;48.626;9.238;2023-08-24T15:17:43;14.17;;;8.50;;
735;SDS011;352;48.626;9.238;2023-08-24T15:20:10;18.27;;;9.30;;
735;SDS011;352;48.626;9.238;2023-08-24T15:22:42;13.90;;;9.33;;